Time;durP1;ratioP1;P1;durP2;ratioP2;P2;SDS_P1;SDS_P2;PMS_P1;PMS_P2;Temp;Humidity;BMP_temperature;BMP_pressure;BME280_temperature;BME280_humidity;BME280_pressure;Samples;Min_cycle;Max_cycle;Signal;HPM_P1;HPM_P2
2021/07/05 00:00:52;;;;;;;7.22;2.55;;;20.00;99.90;;;;;;5084995;28;20036;-75
2021/07/05 00:03:18;;;;;;;1.90;1.80;;;20.00;99.90;;;;;;5089207;28;20035;-76
2021/07/05 00:05:44;;;;;;;3.10;2.28;;;20.00;99.90;;;;;;5085458;28;20493;-77
2021/07/05 00:08:09;;;;;;;2.45;2.20;;;20.00;99.90;;;;;;5089067;28;20108;-74
2021/07/05 00:10:35;;;;;;;3.63;2.42;;;20.00;99.90;;;;;;5089682;28;20465;-76
2021/07/05 00:13:02;;;;;;;5.57;2.55;;;20.10;99.90;;;;;;5079276;28;20040;-74
2021/07/05 00:15:30;;;;;;;2.58;2.35;;;20.30;99.90;;;;;;5084305;28;20385;-75
2021/07/05 00:17:59;;;;;;;6.60;2.10;;;20.30;99.90;;;;;;5080293;28;20032;-74
2021/07/05 00:20:25;;;;;;;7.05;2.60;;;20.30;99.90;;;;;;5090390;28;20084;-76
2021/07/05 00:22:52;;;;;;;1.80;1.70;;;20.20;99.90;;;;;;5092202;28;20024;-74
2021/07/05 00:25:18;;;;;;;5.15;2.08;;;20.10;99.90;;;;;;5092485;28;20028;-74
2021/07/05 00:27:44;;;;;;;4.70;1.95;;;20.00;99.90;;;;;;5091122;28;20359;-76
2021/07/05 00:30:10;;;;;;;8.20;2.42;;;20.00;99.90;;;;;;5085183;28;20393;-74
2021/07/05 00:32:36;;;;;;;4.55;3.38;;;19.90;99.90;;;;;;5087213;28;20480;-76
2021/07/05 00:35:03;;;;;;;5.35;4.20;;;20.00;99.90;;;;;;5083876;28;20112;-75
2021/07/05 00:37:29;;;;;;;11.52;3.63;;;19.90;99.90;;;;;;5087115;28;20027;-76
2021/07/05 00:39:55;;;;;;;6.00;4.63;;;19.80;99.90;;;;;;5086258;28;20028;-77
2021/07/05 00:42:21;;;;;;;6.57;4.30;;;19.70;99.90;;;;;;5078748;28;20038;-75
2021/07/05 00:44:46;;;;;;;10.05;5.63;;;19.70;99.90;;;;;;5082688;28;20420;-75
2021/07/05 00:47:12;;;;;;;6.32;4.80;;;19.80;99.90;;;;;;5090413;28;20024;-73
2021/07/05 00:49:38;;;;;;;8.43;5.25;;;19.70;99.90;;;;;;5090929;28;20032;-74
2021/07/05 00:52:05;;;;;;;7.93;5.25;;;19.60;99.90;;;;;;5090364;28;20028;-74
2021/07/05 00:54:31;;;;;;;10.15;5.32;;;19.70;99.90;;;;;;5087295;28;20125;-74
2021/07/05 00:56:57;;;;;;;7.22;5.50;;;19.80;99.90;;;;;;5090731;28;20048;-74
2021/07/05 00:59:25;;;;;;;5.28;4.85;;;19.90;99.90;;;;;;5081777;28;20471;-74
2021/07/05 01:01:50;;;;;;;6.13;4.63;;;20.00;99.90;;;;;;5079654;28;20052;-75
2021/07/05 01:04:16;;;;;;;6.80;5.07;;;20.00;99.90;;;;;;5087291;28;20066;-74
2021/07/05 01:06:42;;;;;;;5.82;4.18;;;20.00;99.90;;;;;;5089115;28;20020;-73
2021/07/05 01:09:08;;;;;;;5.45;4.53;;;20.10;99.90;;;;;;5090218;28;20073;-73
2021/07/05 01:11:33;;;;;;;10.35;5.65;;;20.10;99.90;;;;;;5079723;28;20031;-73
2021/07/05 01:13:59;;;;;;;6.15;4.57;;;20.20;99.90;;;;;;5081286;28;20119;-75
2021/07/05 01:16:25;;;;;;;7.97;4.47;;;20.20;99.90;;;;;;5078051;28;20032;-76
2021/07/05 01:18:52;;;;;;;7.68;4.15;;;20.20;99.90;;;;;;5089259;28;20518;-73
2021/07/05 01:21:18;;;;;;;7.63;3.92;;;20.30;99.90;;;;;;5089279;28;20048;-74
2021/07/05 01:23:44;;;;;;;5.43;3.70;;;20.20;99.90;;;;;;5088664;28;20056;-75
2021/07/05 01:26:09;;;;;;;6.78;3.20;;;20.00;99.90;;;;;;5086873;28;20024;-76
2021/07/05 01:28:35;;;;;;;8.15;3.30;;;19.80;99.90;;;;;;5085631;28;20083;-73
2021/07/05 01:31:01;;;;;;;7.47;3.53;;;19.60;99.90;;;;;;5089513;28;20458;-73
2021/07/05 01:33:27;;;;;;;3.58;3.35;;;19.60;99.90;;;;;;5085422;28;20078;-73
2021/07/05 01:35:52;;;;;;;5.68;4.15;;;19.70;99.90;;;;;;5086108;28;20024;-75
2021/07/05 01:38:21;;;;;;;4.13;3.83;;;19.90;99.90;;;;;;5090904;28;20016;-73
2021/07/05 01:41:00;;;;;;;5.00;3.30;;;19.90;99.90;;;;;;5088597;28;20020;-74
2021/07/05 01:43:28;;;;;;;3.33;3.13;;;19.80;99.90;;;;;;5090542;28;20386;-73
2021/07/05 01:45:54;;;;;;;7.18;3.78;;;19.70;99.90;;;;;;5086459;28;20438;-74
2021/07/05 01:48:20;;;;;;;3.53;3.25;;;19.70;99.90;;;;;;5090473;28;20020;-74
2021/07/05 01:50:46;;;;;;;4.95;4.18;;;19.70;99.90;;;;;;5089952;28;20032;-74
2021/07/05 01:53:12;;;;;;;4.88;4.28;;;19.60;99.90;;;;;;5085319;28;20031;-74
2021/07/05 01:55:38;;;;;;;5.13;4.43;;;19.50;99.90;;;;;;5083703;28;20024;-73
2021/07/05 01:58:07;;;;;;;5.57;4.97;;;19.70;99.90;;;;;;5085757;28;20095;-70
2021/07/05 02:00:34;;;;;;;5.78;5.18;;;19.80;99.90;;;;;;5078263;28;20028;-72
2021/07/05 02:03:00;;;;;;;5.85;5.22;;;19.80;99.90;;;;;;5081371;28;20027;-73
2021/07/05 02:05:27;;;;;;;5.57;4.32;;;19.80;99.90;;;;;;5089977;28;20435;-72
2021/07/05 02:07:53;;;;;;;4.60;4.20;;;19.90;99.90;;;;;;5086531;28;20077;-71
2021/07/05 02:10:29;;;;;;;4.85;4.53;;;19.90;99.90;;;;;;5089492;28;20020;-70
2021/07/05 02:12:56;;;;;;;4.13;3.83;;;19.80;99.90;;;;;;5086487;28;20097;-73
2021/07/05 02:15:23;;;;;;;3.97;3.67;;;19.80;99.90;;;;;;5090374;28;20027;-70
2021/07/05 02:17:49;;;;;;;4.25;3.95;;;19.80;99.90;;;;;;5089968;28;20471;-72
2021/07/05 02:20:28;;;;;;;4.82;4.28;;;19.80;99.90;;;;;;5077405;28;20028;-73
2021/07/05 02:22:54;;;;;;;10.13;4.20;;;19.80;99.90;;;;;;5076897;28;20036;-70
2021/07/05 02:25:26;;;;;;;3.53;3.33;;;19.80;99.90;;;;;;5085442;28;20073;-72
2021/07/05 02:27:52;;;;;;;;;;;19.80;99.90;;;;;;5090762;28;20012;-72
2021/07/05 02:30:21;;;;;;;3.55;3.25;;;19.80;99.90;;;;;;5091220;28;20354;-71
2021/07/05 02:32:48;;;;;;;3.60;3.40;;;19.80;99.90;;;;;;5093930;28;20051;-72
2021/07/05 02:35:17;;;;;;;4.63;3.25;;;19.70;99.90;;;;;;5086984;28;20090;-74
2021/07/05 02:37:43;;;;;;;4.43;3.47;;;19.70;99.90;;;;;;5084237;28;20055;-70
2021/07/05 02:40:12;;;;;;;7.00;3.28;;;19.70;99.90;;;;;;5092872;28;20024;-73
2021/07/05 02:42:39;;;;;;;3.40;3.20;;;19.70;99.90;;;;;;5081110;28;20437;-72
2021/07/05 02:45:06;;;;;;;3.67;3.08;;;19.70;99.90;;;;;;5086811;28;20016;-72
2021/07/05 02:47:32;;;;;;;4.90;3.50;;;19.70;99.90;;;;;;5091754;28;20135;-73
2021/07/05 02:49:58;;;;;;;3.10;2.90;;;19.80;99.90;;;;;;5090624;28;20111;-73
2021/07/05 02:52:24;;;;;;;5.88;3.53;;;19.80;99.90;;;;;;5093486;28;20024;-72
2021/07/05 02:54:49;;;;;;;4.97;4.57;;;19.80;99.90;;;;;;5089671;28;20097;-71
2021/07/05 02:57:30;;;;;;;7.90;3.83;;;19.90;99.90;;;;;;5092175;28;20074;-72
2021/07/05 03:00:12;;;;;;;4.30;3.72;;;19.90;99.90;;;;;;5087506;28;20390;-71
2021/07/05 03:02:38;;;;;;;7.00;3.13;;;19.90;99.90;;;;;;5092082;28;20625;-71
2021/07/05 03:05:11;;;;;;;5.18;3.05;;;20.10;99.90;;;;;;5091495;28;20032;-72
2021/07/05 03:07:38;;;;;;;12.00;3.03;;;20.10;99.90;;;;;;5082922;28;20028;-72
2021/07/05 03:10:09;;;;;;;6.35;2.45;;;20.30;99.90;;;;;;5093507;28;20062;-72
2021/07/05 03:12:36;;;;;;;3.03;2.83;;;20.70;99.90;;;;;;5084328;28;20390;-72
2021/07/05 03:15:03;;;;;;;2.97;2.70;;;20.60;99.90;;;;;;5086140;28;20028;-75
2021/07/05 03:17:29;;;;;;;7.32;2.97;;;20.60;99.90;;;;;;5089080;28;20036;-72
2021/07/05 03:19:55;;;;;;;3.67;3.25;;;20.40;99.90;;;;;;5087588;28;20054;-74
2021/07/05 03:22:20;;;;;;;3.70;3.35;;;20.10;99.90;;;;;;5082480;28;20036;-74
2021/07/05 03:24:47;;;;;;;4.00;3.70;;;19.90;99.90;;;;;;5086603;28;20024;-73
2021/07/05 03:27:13;;;;;;;6.75;3.72;;;19.70;99.90;;;;;;5086330;28;20021;-74
2021/07/05 03:29:39;;;;;;;5.20;3.85;;;19.60;99.90;;;;;;5090535;28;20104;-73
2021/07/05 03:32:06;;;;;;;5.53;3.00;;;19.50;99.90;;;;;;5089453;28;20025;-75
2021/07/05 03:34:33;;;;;;;3.60;3.30;;;19.50;99.90;;;;;;5090810;28;20027;-72
2021/07/05 03:36:59;;;;;;;9.80;3.42;;;19.70;99.90;;;;;;5092050;28;20100;-73
2021/07/05 03:39:25;;;;;;;4.20;2.78;;;20.00;99.90;;;;;;5089996;28;20490;-71
2021/07/05 03:41:51;;;;;;;3.88;3.20;;;20.20;99.90;;;;;;5092155;28;20048;-71
2021/07/05 03:44:17;;;;;;;4.45;3.17;;;20.10;99.90;;;;;;5094233;28;20056;-73
2021/07/05 03:46:43;;;;;;;4.80;2.22;;;20.00;99.90;;;;;;5089684;28;20056;-72
2021/07/05 03:49:09;;;;;;;3.08;2.45;;;19.80;99.90;;;;;;5079298;28;20055;-74
2021/07/05 03:51:35;;;;;;;7.82;1.83;;;19.70;99.90;;;;;;5091900;28;20432;-72
2021/07/05 03:54:01;;;;;;;2.08;1.98;;;19.70;99.90;;;;;;5092524;28;20466;-73
2021/07/05 03:56:27;;;;;;;2.40;2.20;;;19.70;99.90;;;;;;5091673;28;20020;-73
2021/07/05 03:58:53;;;;;;;3.15;2.03;;;19.60;99.90;;;;;;5093966;28;20026;-72
2021/07/05 04:01:19;;;;;;;4.78;2.55;;;19.60;99.90;;;;;;5088564;28;20051;-73
2021/07/05 04:03:45;;;;;;;2.88;2.55;;;19.70;99.90;;;;;;5094249;28;20020;-72
2021/07/05 04:06:12;;;;;;;2.22;2.13;;;19.60;99.90;;;;;;5091492;28;20031;-73
2021/07/05 04:08:38;;;;;;;2.72;2.33;;;19.70;99.90;;;;;;5094890;28;20121;-77
2021/07/05 04:11:04;;;;;;;4.28;3.03;;;19.60;99.90;;;;;;5093303;28;20020;-73
2021/07/05 04:13:30;;;;;;;3.10;2.47;;;19.80;99.90;;;;;;5091412;28;20474;-72
2021/07/05 04:15:57;;;;;;;5.10;2.40;;;19.90;99.90;;;;;;5092151;28;20031;-73
2021/07/05 04:18:23;;;;;;;4.72;2.58;;;20.00;99.90;;;;;;5106374;28;20114;-74
2021/07/05 04:20:49;;;;;;;2.47;1.58;;;19.90;99.90;;;;;;5113127;28;20477;-74
2021/07/05 04:23:15;;;;;;;2.35;1.70;;;19.80;99.90;;;;;;5112950;28;20158;-74
2021/07/05 04:25:41;;;;;;;1.65;1.55;;;19.90;99.90;;;;;;5093588;28;20047;-76
2021/07/05 04:28:07;;;;;;;2.42;1.60;;;19.90;99.90;;;;;;5092085;28;20028;-75
2021/07/05 04:30:34;;;;;;;1.48;1.38;;;20.00;99.90;;;;;;5087542;28;20142;-75
2021/07/05 04:33:00;;;;;;;1.60;1.42;;;20.00;99.90;;;;;;5092097;28;20026;-75
2021/07/05 04:35:26;;;;;;;1.48;1.38;;;19.90;99.90;;;;;;5091584;28;20030;-74
2021/07/05 04:37:53;;;;;;;1.17;1.17;;;20.00;99.90;;;;;;5090894;28;20521;-75
2021/07/05 04:40:23;;;;;;;1.88;1.65;;;20.00;99.90;;;;;;5072087;28;20024;-75
2021/07/05 04:42:49;;;;;;;1.30;1.20;;;20.00;99.90;;;;;;5071900;28;20025;-73
2021/07/05 04:45:19;;;;;;;2.80;1.05;;;20.30;99.90;;;;;;5081540;28;20103;-73
2021/07/05 04:47:44;;;;;;;1.55;1.45;;;20.30;99.90;;;;;;5091851;28;20432;-75
2021/07/05 04:50:13;;;;;;;3.38;1.85;;;20.30;99.90;;;;;;5092361;28;20017;-75
2021/07/05 04:52:39;;;;;;;10.50;1.48;;;20.50;99.90;;;;;;5091033;28;20486;-76
2021/07/05 04:55:07;;;;;;;3.70;1.92;;;20.70;99.90;;;;;;5091657;28;20028;-76
2021/07/05 04:57:35;;;;;;;4.40;1.70;;;21.00;99.90;;;;;;5090479;28;20031;-74
2021/07/05 05:00:01;;;;;;;1.52;1.33;;;21.30;99.90;;;;;;5091949;28;20024;-74
2021/07/05 05:02:27;;;;;;;2.45;1.33;;;21.40;99.90;;;;;;5093204;28;20028;-73
2021/07/05 05:04:53;;;;;;;1.45;1.35;;;21.60;99.90;;;;;;5092021;28;20016;-73
2021/07/05 05:07:19;;;;;;;6.25;2.05;;;21.60;99.90;;;;;;5091406;28;20028;-74
2021/07/05 05:09:45;;;;;;;2.17;2.00;;;21.60;99.90;;;;;;5089882;28;20020;-74
2021/07/05 05:12:10;;;;;;;3.22;2.15;;;21.60;99.90;;;;;;5091489;28;20039;-74
2021/07/05 05:14:37;;;;;;;2.30;2.10;;;21.50;99.90;;;;;;5086148;28;20034;-78
2021/07/05 05:17:05;;;;;;;2.65;2.45;;;21.60;99.90;;;;;;5092502;28;20085;-78
2021/07/05 05:19:30;;;;;;;2.22;2.13;;;21.70;99.90;;;;;;5091358;28;20055;-77
2021/07/05 05:21:56;;;;;;;2.78;2.55;;;21.80;99.90;;;;;;5086888;28;20064;-76
2021/07/05 05:24:22;;;;;;;4.25;2.50;;;22.00;99.90;;;;;;5091484;28;20016;-76
2021/07/05 05:26:48;;;;;;;2.63;2.42;;;22.00;99.90;;;;;;5090137;28;20389;-77
2021/07/05 05:29:14;;;;;;;2.63;2.42;;;22.10;99.90;;;;;;5091926;28;20032;-76
2021/07/05 05:31:40;;;;;;;2.70;2.50;;;22.10;99.90;;;;;;5090345;28;20016;-77
2021/07/05 05:34:05;;;;;;;5.22;3.10;;;22.10;99.90;;;;;;5071215;28;20447;-77
2021/07/05 05:36:31;;;;;;;2.22;2.08;;;22.30;99.90;;;;;;5071759;28;20029;-77
2021/07/05 05:38:57;;;;;;;4.20;2.60;;;22.30;99.90;;;;;;5070774;28;20222;-76
2021/07/05 05:41:23;;;;;;;2.60;2.45;;;22.30;99.90;;;;;;5074795;28;20028;-77
2021/07/05 05:43:48;;;;;;;2.38;2.17;;;22.40;99.90;;;;;;5071991;28;20747;-77
2021/07/05 05:46:15;;;;;;;2.58;2.38;;;22.50;99.90;;;;;;5070687;28;20548;-78
2021/07/05 05:48:43;;;;;;;1.75;1.65;;;22.50;99.90;;;;;;5081983;28;20031;-78
2021/07/05 05:51:09;;;;;;;1.92;1.80;;;22.70;99.90;;;;;;5090689;28;20020;-77
2021/07/05 05:53:35;;;;;;;2.10;2.00;;;22.80;99.90;;;;;;5087062;28;20107;-80
2021/07/05 05:56:01;;;;;;;1.38;1.27;;;22.80;99.90;;;;;;5090731;28;20570;-78
2021/07/05 05:58:27;;;;;;;1.63;1.52;;;22.70;99.90;;;;;;5089372;28;20171;-78
2021/07/05 06:00:53;;;;;;;2.13;1.92;;;22.70;99.90;;;;;;5090978;28;20047;-77
2021/07/05 06:03:18;;;;;;;2.72;2.53;;;22.70;99.90;;;;;;5078958;28;20081;-79
2021/07/05 06:05:44;;;;;;;3.70;2.33;;;22.70;99.90;;;;;;5071019;28;20074;-78
2021/07/05 06:08:10;;;;;;;3.42;2.75;;;22.70;99.90;;;;;;5087513;28;20358;-78
2021/07/05 06:10:36;;;;;;;3.03;2.70;;;22.70;99.90;;;;;;5091442;28;20012;-78
2021/07/05 06:13:02;;;;;;;2.38;2.17;;;22.90;99.90;;;;;;5088630;28;20062;-78
2021/07/05 06:15:28;;;;;;;4.95;2.13;;;22.80;99.90;;;;;;5084848;28;20020;-77
2021/07/05 06:17:53;;;;;;;2.38;1.80;;;22.70;99.90;;;;;;5090598;28;20085;-78
2021/07/05 06:20:21;;;;;;;3.88;1.80;;;22.60;99.90;;;;;;5088528;28;20393;-78
2021/07/05 06:22:55;;;;;;;1.60;1.50;;;22.40;99.90;;;;;;5086406;28;20028;-78
2021/07/05 06:25:21;;;;;;;1.67;1.58;;;22.40;99.90;;;;;;5073668;28;20072;-77
2021/07/05 06:27:47;;;;;;;1.75;1.42;;;22.50;99.90;;;;;;5071249;28;20025;-77
2021/07/05 06:30:13;;;;;;;2.55;1.88;;;22.50;99.90;;;;;;5088672;28;20016;-77
2021/07/05 06:32:39;;;;;;;7.82;1.38;;;22.60;99.90;;;;;;5095689;28;20022;-76
2021/07/05 06:35:06;;;;;;;3.55;1.48;;;22.70;99.90;;;;;;5086723;28;20044;-77
2021/07/05 06:37:32;;;;;;;3.55;1.25;;;22.70;99.90;;;;;;5084286;28;20028;-77
2021/07/05 06:39:57;;;;;;;1.40;1.27;;;22.70;99.90;;;;;;5074723;28;20090;-77
2021/07/05 06:42:23;;;;;;;0.93;0.93;;;22.80;99.90;;;;;;5090858;28;20389;-77
2021/07/05 06:44:49;;;;;;;1.13;0.90;;;22.90;99.90;;;;;;5090196;28;20032;-77
2021/07/05 06:47:15;;;;;;;2.67;1.25;;;23.00;99.90;;;;;;5091235;28;20036;-77
2021/07/05 06:49:41;;;;;;;2.30;2.10;;;23.00;99.90;;;;;;5083077;28;20483;-78
2021/07/05 06:52:07;;;;;;;1.77;1.33;;;23.10;99.90;;;;;;5070125;28;20111;-76
2021/07/05 06:54:32;;;;;;;1.65;1.38;;;23.30;99.90;;;;;;5070897;28;20025;-76
2021/07/05 06:56:58;;;;;;;2.67;1.38;;;23.40;99.90;;;;;;5070731;28;20017;-77
2021/07/05 06:59:24;;;;;;;2.33;1.98;;;23.50;99.90;;;;;;5070850;28;20031;-76
2021/07/05 07:01:50;;;;;;;1.58;1.48;;;23.70;99.90;;;;;;5077334;28;20032;-69
2021/07/05 07:04:15;;;;;;;1.40;1.30;;;23.60;99.90;;;;;;5089900;28;20024;-68
2021/07/05 07:06:42;;;;;;;3.00;1.55;;;23.60;99.90;;;;;;5085561;28;20467;-68
2021/07/05 07:09:08;;;;;;;1.85;1.10;;;23.60;99.90;;;;;;5088933;28;20084;-68
2021/07/05 07:11:33;;;;;;;2.17;1.98;;;23.60;99.90;;;;;;5078636;28;20403;-68
2021/07/05 07:13:59;;;;;;;3.72;1.08;;;23.60;99.90;;;;;;5069789;28;20029;-69
2021/07/05 07:16:28;;;;;;;2.00;1.80;;;23.60;99.90;;;;;;5071428;28;20063;-68
2021/07/05 07:21:38;;;;;;;5.50;1.75;;;23.60;99.90;;;;;;5088404;28;20093;-68
2021/07/05 07:24:04;;;;;;;2.83;1.38;;;23.80;99.90;;;;;;5093808;28;20020;-68
2021/07/05 07:26:30;;;;;;;3.50;1.42;;;23.80;99.90;;;;;;5091874;28;20030;-68
2021/07/05 07:28:56;;;;;;;1.85;1.67;;;23.80;99.90;;;;;;5093407;28;20058;-70
2021/07/05 07:31:23;;;;;;;2.55;2.35;;;23.80;99.90;;;;;;5092237;28;20033;-70
2021/07/05 07:33:49;;;;;;;2.55;2.20;;;23.90;99.90;;;;;;5101122;28;20020;-67
2021/07/05 07:36:15;;;;;;;1.95;1.85;;;23.90;99.90;;;;;;5096983;28;20386;-70
2021/07/05 07:38:48;;;;;;;4.32;4.03;;;23.90;99.90;;;;;;5097350;28;20094;-71
2021/07/05 07:41:20;;;;;;;5.43;2.05;;;23.70;99.90;;;;;;5097931;28;20043;-69
2021/07/05 07:43:46;;;;;;;1.85;1.70;;;23.70;99.90;;;;;;5096010;28;20028;-69
2021/07/05 07:46:11;;;;;;;4.47;3.70;;;23.60;99.90;;;;;;5080403;28;20335;-71
2021/07/05 07:48:37;;;;;;;4.28;2.05;;;23.70;99.90;;;;;;5075105;28;20024;-69
2021/07/05 07:51:03;;;;;;;3.85;2.20;;;23.70;99.90;;;;;;5073806;28;20033;-68
2021/07/05 07:53:29;;;;;;;2.17;2.03;;;23.70;99.90;;;;;;5075555;28;20020;-69
2021/07/05 07:55:55;;;;;;;6.18;2.10;;;23.70;99.90;;;;;;5075211;28;20081;-69
2021/07/05 07:58:21;;;;;;;2.80;1.90;;;23.70;99.90;;;;;;5074513;28;20037;-65
2021/07/05 08:00:46;;;;;;;1.63;1.52;;;23.50;99.90;;;;;;5081900;28;20109;-69
2021/07/05 08:03:12;;;;;;;5.80;2.08;;;23.40;99.90;;;;;;5084292;28;20122;-67
2021/07/05 08:05:39;;;;;;;2.67;2.17;;;23.40;99.90;;;;;;5073236;28;20024;-66
2021/07/05 08:08:05;;;;;;;4.45;2.17;;;23.40;99.90;;;;;;5072483;28;20075;-67
2021/07/05 08:10:31;;;;;;;3.83;2.70;;;23.50;99.90;;;;;;5072380;28;20028;-66
2021/07/05 08:12:57;;;;;;;2.65;2.45;;;23.60;99.90;;;;;;5072351;28;20552;-69
2021/07/05 08:15:24;;;;;;;4.70;2.70;;;23.70;99.90;;;;;;5072719;28;20032;-68
2021/07/05 08:17:50;;;;;;;2.83;2.10;;;23.70;99.90;;;;;;5075457;28;20028;-69
2021/07/05 08:20:25;;;;;;;2.40;2.17;;;23.80;99.90;;;;;;5078813;28;20547;-70
2021/07/05 08:22:53;;;;;;;2.42;2.22;;;23.70;99.90;;;;;;5071265;28;20365;-68
2021/07/05 08:25:20;;;;;;;8.45;2.63;;;23.70;99.90;;;;;;5072363;28;20024;-69
2021/07/05 08:27:46;;;;;;;2.55;2.35;;;23.70;99.90;;;;;;5071681;28;20070;-70
2021/07/05 08:30:12;;;;;;;6.28;2.33;;;23.90;99.90;;;;;;5077029;28;20394;-68
2021/07/05 08:32:38;;;;;;;4.00;2.20;;;24.00;99.90;;;;;;5092059;28;20131;-66
2021/07/05 08:35:06;;;;;;;5.35;2.88;;;24.20;99.90;;;;;;5091891;28;20482;-67
2021/07/05 08:37:33;;;;;;;4.82;1.77;;;24.30;99.90;;;;;;5087619;28;20036;-68
2021/07/05 08:39:58;;;;;;;3.40;2.22;;;24.50;99.90;;;;;;5087638;28;20504;-67
2021/07/05 08:42:26;;;;;;;7.93;2.90;;;24.80;99.90;;;;;;5089260;28;20107;-68
2021/07/05 08:44:53;;;;;;;7.10;2.17;;;24.80;99.90;;;;;;5073642;28;20024;-69
2021/07/05 08:47:19;;;;;;;4.70;2.35;;;25.00;99.90;;;;;;5080786;28;20107;-69
2021/07/05 08:49:47;;;;;;;2.85;2.20;;;25.10;99.90;;;;;;5092194;28;20040;-70
2021/07/05 08:52:13;;;;;;;1.95;0.77;;;25.20;99.90;;;;;;5092962;28;20398;-68
2021/07/05 08:54:39;;;;;;;4.07;0.95;;;25.40;99.90;;;;;;5093094;28;20024;-69
2021/07/05 08:57:04;;;;;;;1.45;1.35;;;25.60;99.90;;;;;;5090203;28;20028;-69
2021/07/05 08:59:35;;;;;;;2.63;2.42;;;25.80;99.90;;;;;;5084215;28;20017;-68
2021/07/05 09:02:01;;;;;;;4.10;2.30;;;25.80;99.90;;;;;;5087973;28;20646;-69
2021/07/05 09:04:27;;;;;;;7.20;1.05;;;26.00;99.90;;;;;;5090171;28;20029;-68
2021/07/05 09:07:05;;;;;;;3.10;1.15;;;26.20;99.90;;;;;;5091576;28;20506;-68
2021/07/05 09:09:32;;;;;;;1.63;1.52;;;26.30;99.90;;;;;;5090684;28;20414;-68
2021/07/05 09:12:04;;;;;;;1.05;0.73;;;26.50;99.90;;;;;;5071028;28;20113;-67
2021/07/05 09:14:29;;;;;;;1.02;1.02;;;26.60;99.90;;;;;;5070811;28;20028;-67
2021/07/05 09:16:55;;;;;;;1.02;0.90;;;26.50;99.90;;;;;;5070798;28;20077;-69
2021/07/05 09:19:21;;;;;;;2.58;1.05;;;26.20;99.90;;;;;;5071926;28;20044;-69
2021/07/05 09:22:08;;;;;;;3.03;1.83;;;26.20;99.90;;;;;;5071225;28;20091;-69
2021/07/05 09:24:43;;;;;;;9.25;1.58;;;26.20;99.90;;;;;;5071039;28;20108;-70
2021/07/05 09:27:33;;;;;;;2.78;0.80;;;26.10;99.90;;;;;;5104333;28;20302;-68
2021/07/05 09:30:10;;;;;;;1.60;1.13;;;26.20;99.90;;;;;;5104985;27;20597;-69
2021/07/05 09:32:36;;;;;;;5.05;1.20;;;26.30;99.90;;;;;;5110581;28;20038;-69
2021/07/05 09:35:15;;;;;;;2.60;2.25;;;26.40;99.90;;;;;;5111483;28;20022;-68
2021/07/05 09:37:54;;;;;;;1.88;1.73;;;26.60;99.90;;;;;;5098505;28;20036;-69
2021/07/05 09:40:20;;;;;;;1.42;1.35;;;26.90;99.90;;;;;;5106467;28;20030;-68
2021/07/05 09:42:49;;;;;;;2.97;2.08;;;27.00;99.90;;;;;;5110473;28;20035;-68
2021/07/05 09:45:37;;;;;;;3.45;1.67;;;27.10;99.90;;;;;;5095217;28;20509;-68
2021/07/05 09:48:25;;;;;;;1.90;1.48;;;27.10;99.90;;;;;;5090999;28;20518;-67
2021/07/05 09:51:02;;;;;;;4.82;2.33;;;27.00;99.90;;;;;;5099188;28;20486;-68
2021/07/05 09:53:35;;;;;;;2.10;1.98;;;27.10;99.90;;;;;;5104401;28;20028;-68
2021/07/05 09:56:23;;;;;;;1.88;1.77;;;27.30;99.90;;;;;;5111197;28;20090;-69
2021/07/05 09:58:52;;;;;;;4.00;2.13;;;27.60;99.90;;;;;;5091260;28;20477;-69
2021/07/05 10:01:40;;;;;;;2.58;2.00;;;27.80;99.90;;;;;;5096457;28;20038;-70
2021/07/05 10:04:11;;;;;;;2.05;1.90;;;27.70;99.90;;;;;;5110682;28;20072;-70
2021/07/05 10:06:42;;;;;;;3.28;1.95;;;27.60;99.90;;;;;;5108710;28;20020;-69
2021/07/05 10:09:10;;;;;;;2.47;2.30;;;27.60;99.90;;;;;;5109741;28;20031;-68
2021/07/05 10:11:37;;;;;;;2.00;1.67;;;27.50;99.90;;;;;;5110098;28;20015;-68
2021/07/05 10:14:30;;;;;;;1.63;1.52;;;27.30;99.90;;;;;;5094807;28;20062;-70
2021/07/05 10:16:56;;;;;;;2.67;2.10;;;27.30;99.90;;;;;;5090652;28;20501;-69
2021/07/05 10:19:22;;;;;;;1.48;1.38;;;27.10;99.90;;;;;;5090972;28;20032;-70
2021/07/05 10:21:48;;;;;;;2.10;1.65;;;27.10;99.90;;;;;;5090472;28;20134;-69
2021/07/05 10:24:13;;;;;;;3.35;1.50;;;27.20;99.90;;;;;;5090376;28;20027;-70
2021/07/05 10:26:40;;;;;;;2.03;1.92;;;27.30;99.90;;;;;;5093714;28;20028;-69
2021/07/05 10:29:07;;;;;;;3.10;1.95;;;27.40;99.90;;;;;;5100550;28;20027;-70
2021/07/05 10:31:34;;;;;;;1.77;1.65;;;27.40;99.90;;;;;;5106327;28;20031;-70
2021/07/05 10:34:02;;;;;;;1.40;1.30;;;27.40;99.90;;;;;;5110400;28;20028;-70
2021/07/05 10:36:35;;;;;;;4.20;1.90;;;27.30;99.90;;;;;;5099975;28;20035;-69
2021/07/05 10:39:04;;;;;;;4.45;1.90;;;27.30;99.90;;;;;;5090182;28;20024;-70
2021/07/05 10:41:48;;;;;;;3.03;2.08;;;27.30;99.90;;;;;;5090260;28;20028;-69
2021/07/05 10:44:19;;;;;;;2.40;1.92;;;27.30;99.90;;;;;;5108800;28;20057;-70
2021/07/05 10:46:45;;;;;;;2.00;1.90;;;27.10;99.90;;;;;;5104241;28;20480;-70
2021/07/05 10:49:35;;;;;;;1.85;1.75;;;27.20;99.90;;;;;;5101528;28;20103;-69
2021/07/05 10:52:13;;;;;;;2.80;2.60;;;27.30;99.90;;;;;;5087100;28;20222;-70
2021/07/05 10:54:42;;;;;;;1.63;1.52;;;27.30;99.90;;;;;;5094622;28;20060;-69
2021/07/05 10:57:08;;;;;;;2.17;1.95;;;27.30;99.90;;;;;;5093235;28;20115;-70
2021/07/05 10:59:36;;;;;;;2.45;2.25;;;27.30;99.90;;;;;;5104630;28;20474;-69
2021/07/05 11:02:32;;;;;;;2.55;2.35;;;27.30;99.90;;;;;;5101371;28;20027;-70
2021/07/05 11:04:58;;;;;;;2.30;2.10;;;27.30;99.90;;;;;;5119053;27;20031;-70
2021/07/05 11:07:45;;;;;;;3.47;2.70;;;27.10;99.90;;;;;;5110575;28;20035;-71
2021/07/05 11:10:31;;;;;;;3.00;2.80;;;27.10;99.90;;;;;;5117046;27;20689;-69
2021/07/05 11:13:02;;;;;;;2.38;2.22;;;27.40;99.90;;;;;;5135264;27;20431;-70
2021/07/05 11:15:47;;;;;;;2.05;1.95;;;27.60;99.90;;;;;;5115193;27;20028;-70
2021/07/05 11:18:38;;;;;;;2.50;2.13;;;27.90;99.90;;;;;;5106694;28;20060;-72
2021/07/05 11:21:04;;;;;;;1.92;1.83;;;28.20;99.90;;;;;;5113508;28;20024;-71
2021/07/05 11:23:59;;;;;;;2.70;2.35;;;28.10;99.90;;;;;;5107117;28;20050;-70
2021/07/05 11:26:34;;;;;;;5.72;3.75;;;28.10;99.90;;;;;;5114549;28;20022;-70
2021/07/05 11:29:15;;;;;;;3.40;3.00;;;28.10;99.90;;;;;;5096922;28;20072;-70
2021/07/05 11:32:02;;;;;;;2.87;2.50;;;28.20;99.90;;;;;;5103824;28;20019;-70
2021/07/05 11:34:35;;;;;;;2.90;2.70;;;27.90;99.90;;;;;;5106347;27;20305;-74
2021/07/05 11:37:13;;;;;;;2.50;2.30;;;27.70;99.90;;;;;;5101925;28;20130;-71
2021/07/05 11:39:46;;;;;;;5.55;3.03;;;27.70;99.90;;;;;;5109645;28;20035;-68
2021/07/05 11:42:13;;;;;;;4.65;2.67;;;27.70;99.90;;;;;;5114064;28;20051;-71
2021/07/05 11:44:54;;;;;;;2.85;2.58;;;27.90;99.90;;;;;;5113691;28;20024;-70
2021/07/05 11:47:42;;;;;;;3.72;2.67;;;28.00;99.90;;;;;;5103878;28;20019;-69
2021/07/05 11:50:24;;;;;;;3.20;3.00;;;27.90;99.90;;;;;;5112984;28;20674;-70
2021/07/05 11:52:53;;;;;;;2.35;2.15;;;28.20;99.90;;;;;;5111534;27;20492;-70
2021/07/05 11:55:21;;;;;;;2.42;2.33;;;28.50;99.90;;;;;;5111363;28;20024;-71
2021/07/05 11:57:49;;;;;;;5.57;2.85;;;28.70;99.90;;;;;;5113090;28;20477;-68
2021/07/05 12:00:16;;;;;;;2.65;2.45;;;28.80;99.90;;;;;;5113604;28;20024;-69
2021/07/05 12:02:42;;;;;;;3.22;2.92;;;29.00;99.90;;;;;;5107953;28;20028;-69
2021/07/05 12:05:12;;;;;;;3.40;3.10;;;29.30;99.90;;;;;;5108385;28;20028;-69
2021/07/05 12:07:38;;;;;;;3.90;3.53;;;28.70;99.90;;;;;;5101361;28;20028;-70
2021/07/05 12:10:09;;;;;;;4.47;3.72;;;28.50;99.90;;;;;;5113258;28;20386;-69
2021/07/05 12:12:35;;;;;;;3.15;2.95;;;28.70;99.90;;;;;;5113505;28;20057;-70
2021/07/05 12:15:03;;;;;;;4.22;3.20;;;28.80;99.90;;;;;;5112112;28;20049;-70
2021/07/05 12:17:29;;;;;;;4.40;2.78;;;28.60;99.90;;;;;;5109744;28;20439;-70
2021/07/05 12:19:55;;;;;;;3.38;3.17;;;28.40;99.90;;;;;;5113069;28;20020;-70
2021/07/05 12:22:23;;;;;;;4.97;3.22;;;28.50;99.90;;;;;;5113226;27;20053;-70
2021/07/05 12:24:59;;;;;;;3.03;2.83;;;28.70;99.90;;;;;;5113193;28;20054;-70
2021/07/05 12:27:31;;;;;;;3.13;2.92;;;28.50;99.90;;;;;;5100743;28;20023;-71
2021/07/05 12:30:00;;;;;;;8.38;3.90;;;28.30;99.90;;;;;;5095236;28;20016;-71
2021/07/05 12:32:36;;;;;;;2.92;2.72;;;28.50;99.90;;;;;;5112666;28;20067;-69
2021/07/05 12:35:05;;;;;;;3.03;2.83;;;28.40;99.90;;;;;;5102405;28;20165;-70
2021/07/05 12:37:39;;;;;;;4.05;3.53;;;28.20;99.90;;;;;;5100128;28;20489;-71
2021/07/05 12:40:21;;;;;;;3.33;3.00;;;28.20;99.90;;;;;;5113130;28;20024;-71
2021/07/05 12:43:04;;;;;;;3.67;3.38;;;28.30;99.90;;;;;;5112753;28;20039;-71
2021/07/05 12:45:52;;;;;;;5.82;3.38;;;28.40;99.90;;;;;;5112800;27;20031;-73
2021/07/05 12:48:29;;;;;;;4.75;3.10;;;28.40;99.90;;;;;;5092124;28;20038;-71
2021/07/05 12:51:01;;;;;;;3.60;3.40;;;28.60;99.90;;;;;;5092395;28;20108;-70
2021/07/05 12:53:28;;;;;;;3.67;3.38;;;28.50;99.90;;;;;;5092496;28;20024;-69
2021/07/05 12:56:07;;;;;;;3.45;3.15;;;28.00;99.90;;;;;;5093476;28;20069;-71
2021/07/05 12:58:52;;;;;;;2.72;2.53;;;28.10;99.90;;;;;;5092162;28;20066;-70